Latest Coastal Weather Observations for Maria Island

IDT60701

Issued at 9:41 am EST Sunday 19 April 2015 (issued every 10 minutes, with the page automatically refreshed every 10 minutes)

About coastal observations | Map of coastal stations | Coastal observations for TAS | Marine services | Other Formats
Station Details ID: 092124 Name: MARIA ISLAND (POINT LESUEUR) Lat: -42.66 Lon: 148.02 Height: 28.0 m
Data from the previous 72 hours. | See also: Recent months at Maria Island
Date/Time
EST
Temp

°C
Wind Pressure Rain
since 9am
mm
Weather Cloud Vis
km
Sea
Height
m
Swell
Dir
 
Speed
knots
Gust
knots
hPa Trend Height
m
Period
s
Dir
19/09:30am 10.7 SSW 22 27 1022.9 - 0.0 - - - - - - -
19/09:15am 9.6 SSW 29 40 1022.6 - 0.0 - - - - - - -
19/09:10am 9.6 SSW 27 40 1022.3 - 0.0 - - - - - - -
19/09:07am 9.9 SW 24 37 1022.4 - 0.0 - - - - - - -
19/09:00am 9.7 SW 23 29 1022.4 - 3.0 - - - - - - -
19/08:30am 9.6 SSW 22 27 1021.5 - 3.0 - - - - - - -
19/08:08am 9.5 SW 23 32 1021.1 - 3.0 - - - - - - -
19/08:00am 9.7 SW 21 26 1020.9 - 3.0 - - - - - - -
19/07:30am 9.9 SSW 21 28 1020.0 - 3.0 - - - - - - -
19/07:00am 9.1 SSW 28 34 1018.9 - 3.0 - - - - - - -
19/06:54am 9.1 SSW 28 34 1018.8 - 3.0 - - - - - - -
19/06:30am 9.7 SW 23 31 1017.9 - 3.0 - - - - - - -
19/06:27am 9.5 SW 21 31 1017.8 - 3.0 - - - - - - -
19/06:00am 8.8 SW 16 20 1017.5 - 3.0 Recent precip. - - - - - -
19/05:41am 8.9 SSW 22 28 1017.1 - 3.0 - - - - - - -
19/05:30am 8.8 SSW 30 36 1016.7 - 2.8 - - - - - - -
19/05:00am 8.9 SW 30 36 1015.8 - 2.8 - - - - - - -
19/04:30am 9.6 SW 28 35 1014.7 - 2.8 - - - - - - -
19/04:00am 9.0 SW 26 33 1014.2 - 2.6 - - - - - - -
19/03:30am 9.4 SW 22 27 1013.4 - 2.4 - - - - - - -
19/03:00am 10.5 SW 25 30 1012.8 - 2.4 - - - - - - -
19/02:51am 10.7 SW 15 26 1012.6 - 2.4 - - - - - - -
19/02:30am 10.5 SW 12 16 1012.2 - 2.4 - - - - - - -
19/02:00am 10.5 W 12 17 1011.8 - 2.4 - - - - - - -
19/01:30am 10.8 W 11 14 1011.5 - 2.4 - - - - - - -
19/01:00am 10.5 W 12 14 1011.2 - 2.4 - - - - - - -
19/12:30am 10.6 WNW 9 14 1010.9 - 2.4 - - - - - - -
19/12:00am 10.8 W 10 15 1010.5 - 2.4 - - - - - - -
 
Date/Time
EST
Temp

°C
Wind Pressure Rain
since 9am
mm
Weather Cloud Vis
km
Sea
Height
m
Swell
Dir
 
Speed
knots
Gust
knots
hPa Trend Height
m
Period
s
Dir
18/11:30pm 11.2 W 11 14 1010.0 - 2.4 - - - - - - -
18/11:00pm 11.4 W 13 15 1009.6 - 2.4 - - - - - - -
18/10:30pm 11.4 W 10 12 1009.6 - 2.4 - - - - - - -
18/10:00pm 11.8 W 10 14 1009.6 - 2.4 - - - - - - -
18/09:30pm 11.9 W 12 16 1008.9 - 2.2 - - - - - - -
18/09:00pm 12.1 WSW 11 14 1008.2 - 2.2 - - - - - - -
18/08:30pm 12.0 W 12 15 1007.8 - 2.2 - - - - - - -
18/08:00pm 12.2 WNW 9 13 1007.3 - 2.2 - - - - - - -
18/07:30pm 12.4 NNW 4 7 1006.7 - 2.2 - - - - - - -
18/07:00pm 12.1 WSW 3 5 1006.3 - 2.2 - - - - - - -
18/06:30pm 11.7 S 6 9 1006.1 - 2.2 - - - - - - -
18/06:00pm 11.7 S 9 13 1005.6 - 2.2 Rain - - - - - -
18/05:30pm 11.5 SSW 14 19 1005.6 - 1.8 - - - - - - -
18/05:00pm 11.7 SSW 24 27 1004.2 - 0.6 - - - - - - -
18/04:30pm 12.3 SSW 31 36 1003.1 - 0.0 - - - - - - -
18/04:25pm 12.3 SSW 33 43 1003.1 - 0.0 - - - - - - -
18/04:15pm 13.0 SW 27 42 1001.7 - 0.0 - - - - - - -
18/04:11pm 13.8 WNW 19 36 1002.3 - 0.0 - - - - - - -
18/04:09pm 15.0 NW 17 28 1002.7 - 0.0 - - - - - - -
18/04:00pm 18.4 NNW 15 21 1001.4 - 0.0 - - - - - - -
18/03:30pm 18.7 NNW 17 19 1001.0 - 0.0 - - - - - - -
18/03:00pm 19.0 N 15 19 1000.8 - 0.0 - - - - - - -
18/02:30pm 19.1 N 16 19 1001.2 - 0.0 - - - - - - -
18/02:00pm 19.5 NNW 21 25 1001.0 - 0.0 - - - - - - -
18/01:30pm 19.6 N 19 23 1001.4 - 0.0 - - - - - - -
18/01:00pm 19.4 NNW 18 23 1001.9 - 0.0 - - - - - - -
18/12:30pm 19.7 NW 18 24 1002.0 - 0.0 - - - - - - -
18/12:00pm 19.9 NW 15 21 1002.8 - 0.0 - - - - - - -
18/11:30am 19.3 NW 17 21 1003.0 - 0.0 - - - - - - -
18/11:00am 18.6 NNW 14 19 1003.6 - 0.0 - - - - - - -
18/10:30am 17.6 N 14 17 1004.2 - 0.0 - - - - - - -
18/10:00am 16.9 N 16 23 1004.8 - 0.0 - - - - - - -
18/09:30am 16.1 N 16 19 1005.3 - 0.0 - - - - - - -
18/09:23am 16.1 N 15 19 1005.5 - 0.0 - - - - - - -
18/09:00am 15.7 WNW 5 7 1006.4 - 0.0 - - - - - - -
18/08:30am 14.6 NNW 13 17 1006.2 - 0.0 - - - - - - -
18/08:00am 14.7 NNW 16 19 1006.1 - 0.0 - - - - - - -
18/07:30am 14.8 NNW 12 18 1005.9 - 0.0 - - - - - - -
18/07:00am 14.4 NNW 14 17 1005.6 - 0.0 - - - - - - -
18/06:30am 14.5 NNW 18 20 1005.5 - 0.0 - - - - - - -
18/06:00am 14.4 N 17 21 1005.1 - 0.0 - - - - - - -
18/05:30am 14.2 NNW 19 23 1005.4 - 0.0 - - - - - - -
18/05:00am 14.2 NW 15 19 1005.8 - 0.0 - - - - - - -
18/04:30am 14.5 N 18 22 1005.7 - 0.0 - - - - - - -
18/04:00am 14.7 N 20 24 1005.7 - 0.0 - - - - - - -
18/03:30am 14.7 N 20 25 1006.1 - 0.0 - - - - - - -
18/03:00am 14.7 N 21 23 1006.4 - 0.0 - - - - - - -
18/02:30am 14.7 N 23 25 1006.9 - 0.0 - - - - - - -
18/02:00am 14.7 N 18 21 1008.0 - 0.0 - - - - - - -
18/01:30am 14.5 NNW 14 18 1008.7 - 0.0 - - - - - - -
18/01:00am 14.7 NNW 16 20 1009.8 - 0.0 - - - - - - -
18/12:30am 14.7 N 16 20 1009.6 - 0.0 - - - - - - -
18/12:00am 14.3 NNW 14 20 1010.2 - 0.0 - - - - - - -
 
Date/Time
EST
Temp

°C
Wind Pressure Rain
since 9am
mm
Weather Cloud Vis
km
Sea
Height
m
Swell
Dir
 
Speed
knots
Gust
knots
hPa Trend Height
m
Period
s
Dir
17/11:30pm 14.5 N 19 23 1010.3 - 0.0 - - - - - - -
17/11:00pm 14.3 N 19 21 1010.5 - 0.0 - - - - - - -
17/10:30pm 14.3 NNW 15 19 1011.5 - 0.0 - - - - - - -
17/10:00pm 14.4 NNW 21 25 1011.9 - 0.0 - - - - - - -
17/09:30pm 14.3 NNW 13 16 1012.4 - 0.0 - - - - - - -
17/09:00pm 14.3 NNW 12 14 1012.7 - 0.0 - - - - - - -
17/08:30pm 14.4 NNW 10 12 1013.1 - 0.0 - - - - - - -
17/08:00pm 14.6 NNW 10 12 1013.0 - 0.0 - - - - - - -
17/07:30pm 15.1 N 11 13 1013.2 - 0.0 - - - - - - -
17/07:00pm 15.4 NNW 11 13 1012.9 - 0.0 - - - - - - -
17/06:30pm 16.0 NNW 15 16 1013.2 - 0.0 - - - - - - -
17/06:00pm 16.6 NNW 14 17 1012.9 - 0.0 - - - - - - -
17/05:30pm 16.8 N 14 18 1013.0 - 0.0 - - - - - - -
17/05:00pm 17.1 NNW 15 16 1012.8 - 0.0 - - - - - - -
17/04:30pm 16.8 N 15 17 1013.1 - 0.0 - - - - - - -
17/04:00pm 17.2 N 13 14 1013.5 - 0.0 - - - - - - -
17/03:30pm 17.7 N 13 15 1013.9 - 0.0 - - - - - - -
17/03:00pm 17.6 N 12 15 1014.2 - 0.0 - - - - - - -
17/02:30pm 17.6 N 16 18 1014.3 - 0.0 - - - - - - -
17/02:00pm 17.5 N 17 20 1014.5 - 0.0 - - - - - - -
17/01:30pm 18.0 N 14 16 1015.2 - 0.0 - - - - - - -
17/01:00pm 17.5 NNE 16 19 1015.9 - 0.0 - - - - - - -
17/12:30pm 17.2 NNE 16 19 1016.5 - 0.0 - - - - - - -
17/12:00pm 16.8 N 16 19 1017.1 - 0.0 - - - - - - -
17/11:30am 16.2 N 18 20 1017.7 - 0.0 - - - - - - -
17/11:00am 15.7 N 15 18 1018.4 - 0.0 - - - - - - -
17/10:30am 15.4 N 16 18 1018.8 - 0.0 - - - - - - -
17/10:00am 14.7 N 15 19 1019.0 - 0.0 - - - - - - -
17/09:30am 14.3 N 14 16 1019.6 - 0.0 - - - - - - -
17/09:00am 13.6 N 14 16 1020.1 - 0.0 - - - - - - -
17/08:30am 12.7 N 9 12 1020.7 - 0.0 - - - - - - -
17/08:00am 12.1 NW 6 8 1020.7 - 0.0 - - - - - - -
17/07:30am 11.8 NW 7 9 1020.4 - 0.0 - - - - - - -
17/07:00am 11.1 WNW 7 8 1020.2 - 0.0 - - - - - - -
17/06:30am 11.1 NW 8 9 1020.1 - 0.0 - - - - - - -
17/06:00am 11.1 WNW 4 6 1020.0 - 0.0 - - - - - - -
17/05:30am 11.1 NW 8 10 1019.9 - 0.0 - - - - - - -
17/05:00am 12.0 NNW 10 11 1019.9 - 0.0 - - - - - - -
17/04:30am 12.0 NW 8 11 1019.4 - 0.0 - - - - - - -
17/04:00am 12.2 NW 7 8 1019.3 - 0.0 - - - - - - -
17/03:30am 12.4 NW 5 6 1019.4 - 0.0 - - - - - - -
17/03:00am 13.1 NW 8 9 1019.2 - 0.0 - - - - - - -
17/02:30am 13.5 N 9 11 1019.4 - 0.0 - - - - - - -
17/02:00am 14.0 NNW 9 13 1019.5 - 0.0 - - - - - - -
17/01:30am 13.9 NW 9 11 1019.6 - 0.0 - - - - - - -
17/01:00am 14.1 NW 8 11 1020.0 - 0.0 - - - - - - -
17/12:30am 14.3 NNW 12 15 1020.1 - 0.0 - - - - - - -
17/12:00am 13.9 NW 11 15 1020.2 - 0.0 - - - - - - -
 
Date/Time
EST
Temp

°C
Wind Pressure Rain
since 9am
mm
Weather Cloud Vis
km
Sea
Height
m
Swell
Dir
 
Speed
knots
Gust
knots
hPa Trend Height
m
Period
s
Dir
16/11:30pm 14.0 NW 10 12 1020.2 - 0.0 - - - - - - -
16/11:00pm 14.1 NW 11 13 1020.4 - 0.0 - - - - - - -
16/10:30pm 14.5 NW 15 19 1020.4 - 0.0 - - - - - - -
16/10:00pm 14.6 WNW 12 16 1020.7 - 0.0 - - - - - - -
16/09:30pm 14.9 NW 15 20 1020.5 - 0.0 - - - - - - -
16/09:00pm 14.7 W 16 22 1020.3 - 0.0 - - - - - - -
16/08:30pm 13.8 NW 12 15 1020.4 - 0.0 - - - - - - -
16/08:00pm 14.2 NNW 17 19 1019.9 - 0.0 - - - - - - -
16/07:30pm 14.3 NW 11 16 1019.8 - 0.0 - - - - - - -
16/07:00pm 13.7 WNW 12 14 1019.9 - 0.0 - - - - - - -
16/06:30pm 14.0 WNW 15 19 1019.7 - 0.0 - - - - - - -
16/06:00pm 14.1 WNW 13 15 1019.7 - 0.0 - - - - - - -
16/05:30pm 14.6 WNW 15 20 1019.3 - 0.0 - - - - - - -
16/05:00pm 15.4 W 12 15 1019.1 - 0.0 - - - - - - -
16/04:30pm 16.0 WSW 10 14 1018.9 - 0.0 - - - - - - -
16/04:00pm 16.5 W 9 14 1018.9 - 0.0 - - - - - - -
16/03:30pm 16.6 WSW 14 18 1018.7 - 0.0 - - - - - - -
16/03:00pm 17.0 SW 12 16 1018.7 - 0.0 - - - - - - -
16/02:30pm 16.2 WSW 19 27 1018.4 - 0.0 - - - - - - -
16/02:00pm 17.4 WSW 12 19 1018.2 - 0.0 - - - - - - -
16/01:30pm 17.3 W 11 15 1018.1 - 0.0 - - - - - - -
16/01:00pm 17.2 W 13 19 1018.1 - 0.0 - - - - - - -
16/12:30pm 16.7 WSW 14 20 1018.4 - 0.0 - - - - - - -
16/12:00pm 16.0 WSW 19 27 1018.4 - 0.0 - - - - - - -
16/11:30am 16.0 WSW 17 22 1018.7 - 0.0 - - - - - - -
16/11:00am 16.1 W 15 19 1018.3 - 0.0 - - - - - - -
16/10:30am 15.9 WSW 12 15 1018.4 - 0.0 - - - - - - -
16/10:00am 15.8 W 14 18 1018.2 - 0.0 - - - - - - -

Other Formats:

Comma delimited format used in spreadsheet applications
http://www.bom.gov.au/fwo/IDT60701/IDT60701.95988.axf

JavaScript Object Notation format (JSON) in row-major order
http://www.bom.gov.au/fwo/IDT60701/IDT60701.95988.json